Time;durP1;ratioP1;P1;durP2;ratioP2;P2;SDS_P1;SDS_P2;PMS_P1;PMS_P2;Temp;Humidity;BMP_temperature;BMP_pressure;BME280_temperature;BME280_humidity;BME280_pressure;Samples;Min_cycle;Max_cycle;Signal;HPM_P1;HPM_P2
2023/12/01 00:00:50;;;;;;;23.92;9.40;;;;;;;;;;10367814;28;20281;-75
2023/12/01 00:05:51;;;;;;;19.52;7.80;;;;;;;;;;10334209;28;20230;-74
2023/12/01 00:10:52;;;;;;;22.05;8.63;;;;;;;;;;10347419;28;20690;-75
2023/12/01 00:15:53;;;;;;;16.73;8.07;;;;;;;;;;10346630;28;20221;-75
2023/12/01 00:20:54;;;;;;;21.35;8.55;;;;;;;;;;10356684;28;20302;-75
2023/12/01 00:25:55;;;;;;;25.02;8.93;;;;;;;;;;10338611;28;20216;-75
2023/12/01 00:30:56;;;;;;;20.20;8.48;;;;;;;;;;10352802;28;20226;-74
2023/12/01 00:35:57;;;;;;;20.77;9.53;;;;;;;;;;10337089;28;20221;-74
2023/12/01 00:40:58;;;;;;;20.02;8.57;;;;;;;;;;10342390;28;20219;-77
2023/12/01 00:45:59;;;;;;;23.70;9.02;;;;;;;;;;10371603;28;20285;-74
2023/12/01 00:51:01;;;;;;;22.47;9.40;;;;;;;;;;10371937;28;20234;-75
2023/12/01 00:56:03;;;;;;;23.73;9.23;;;;;;;;;;10357648;28;20204;-75
2023/12/01 01:01:05;;;;;;;20.10;7.60;;;;;;;;;;10375350;28;20230;-74
2023/12/01 01:06:06;;;;;;;25.02;9.68;;;;;;;;;;10373556;28;21885;-77
2023/12/01 01:11:07;;;;;;;21.77;9.07;;;;;;;;;;10385508;28;20258;-74
2023/12/01 01:16:10;;;;;;;22.35;8.40;;;;;;;;;;10361670;28;21103;-74
2023/12/01 01:21:10;;;;;;;20.20;9.00;;;;;;;;;;10353928;28;20226;-73
2023/12/01 01:26:13;;;;;;;22.43;8.97;;;;;;;;;;10350207;28;20238;-74
2023/12/01 01:31:14;;;;;;;17.87;8.03;;;;;;;;;;10337863;28;20235;-74
2023/12/01 01:36:18;;;;;;;20.50;7.38;;;;;;;;;;10328776;28;20218;-74
2023/12/01 01:41:19;;;;;;;28.63;8.90;;;;;;;;;;10322628;28;20230;-75
2023/12/01 01:46:20;;;;;;;19.30;9.13;;;;;;;;;;10320713;28;22310;-72
2023/12/01 01:51:21;;;;;;;21.63;8.50;;;;;;;;;;10310666;28;20242;-75
2023/12/01 01:56:23;;;;;;;24.13;9.60;;;;;;;;;;10335846;28;20206;-74
2023/12/01 02:01:25;;;;;;;23.17;8.57;;;;;;;;;;10339015;28;20234;-74
2023/12/01 02:06:30;;;;;;;16.87;7.50;;;;;;;;;;10314473;28;20739;-75
2023/12/01 02:11:31;;;;;;;22.47;7.50;;;;;;;;;;10314634;28;20235;-75
2023/12/01 02:16:32;;;;;;;19.40;7.07;;;;;;;;;;10331987;28;20218;-75
2023/12/01 02:21:35;;;;;;;20.97;7.60;;;;;;;;;;10329758;28;20226;-75
2023/12/01 02:26:36;;;;;;;28.93;7.13;;;;;;;;;;10320651;28;20708;-75
2023/12/01 02:31:37;;;;;;;20.60;6.50;;;;;;;;;;10349568;28;20705;-75
2023/12/01 02:36:38;;;;;;;24.87;8.20;;;;;;;;;;10333131;28;20215;-75
2023/12/01 02:41:39;;;;;;;20.67;7.83;;;;;;;;;;10334726;28;20235;-75
2023/12/01 02:46:40;;;;;;;21.63;8.33;;;;;;;;;;10354631;28;20219;-74
2023/12/01 02:51:41;;;;;;;20.57;8.07;;;;;;;;;;10340632;28;20275;-75
2023/12/01 02:56:42;;;;;;;25.50;8.83;;;;;;;;;;10344740;28;20215;-75
2023/12/01 03:01:43;;;;;;;26.13;9.55;;;;;;;;;;10340406;28;20779;-75
2023/12/01 03:06:44;;;;;;;20.73;7.87;;;;;;;;;;10330677;28;20297;-74
2023/12/01 03:11:46;;;;;;;16.67;7.90;;;;;;;;;;10354623;28;20308;-74
2023/12/01 03:16:48;;;;;;;19.97;9.03;;;;;;;;;;10364810;28;20227;-75
2023/12/01 03:21:49;;;;;;;18.97;8.87;;;;;;;;;;10340101;28;20211;-75
2023/12/01 03:26:50;;;;;;;23.17;7.67;;;;;;;;;;10362270;28;20743;-75
2023/12/01 03:31:51;;;;;;;15.20;7.20;;;;;;;;;;10343067;28;20215;-75
2023/12/01 03:36:52;;;;;;;17.97;7.93;;;;;;;;;;10325966;28;20882;-74
2023/12/01 03:41:53;;;;;;;22.27;9.40;;;;;;;;;;10319094;28;20215;-76
2023/12/01 03:46:54;;;;;;;17.80;8.43;;;;;;;;;;10360476;28;20219;-75
2023/12/01 03:51:55;;;;;;;14.30;7.60;;;;;;;;;;10356361;28;20223;-74
2023/12/01 03:56:57;;;;;;;16.00;7.40;;;;;;;;;;10358326;28;20219;-76
2023/12/01 04:01:58;;;;;;;12.70;7.33;;;;;;;;;;10361642;28;20567;-74
2023/12/01 04:07:00;;;;;;;17.03;8.27;;;;;;;;;;10354052;28;20207;-73
2023/12/01 04:12:01;;;;;;;11.30;6.43;;;;;;;;;;10319924;28;20642;-74
2023/12/01 04:17:08;;;;;;;15.87;7.90;;;;;;;;;;10333073;28;20630;-73
2023/12/01 04:22:10;;;;;;;14.73;7.70;;;;;;;;;;10345303;28;20255;-74
2023/12/01 04:27:11;;;;;;;16.40;7.83;;;;;;;;;;10352978;28;20219;-74
2023/12/01 04:32:12;;;;;;;17.43;8.47;;;;;;;;;;10350015;28;20215;-75
2023/12/01 04:37:15;;;;;;;20.30;9.60;;;;;;;;;;10386869;28;20212;-76
2023/12/01 04:42:16;;;;;;;22.10;8.57;;;;;;;;;;10388754;28;20207;-77
2023/12/01 04:47:16;;;;;;;20.27;8.50;;;;;;;;;;10384883;28;20207;-77
2023/12/01 04:52:17;;;;;;;20.67;8.17;;;;;;;;;;10359495;28;20230;-75
2023/12/01 04:57:18;;;;;;;14.97;7.07;;;;;;;;;;10363703;28;20255;-74
2023/12/01 05:02:19;;;;;;;13.57;7.27;;;;;;;;;;10380472;28;20218;-76
2023/12/01 05:07:20;;;;;;;15.73;7.78;;;;;;;;;;10365277;28;20615;-75
2023/12/01 05:12:22;;;;;;;12.07;6.57;;;;;;;;;;10337944;28;20227;-77
2023/12/01 05:17:23;;;;;;;18.30;8.07;;;;;;;;;;10340170;28;20725;-77
2023/12/01 05:22:24;;;;;;;18.47;8.53;;;;;;;;;;10336607;28;20221;-78
2023/12/01 05:27:25;;;;;;;17.33;7.30;;;;;;;;;;10344483;28;21275;-77
2023/12/01 05:32:26;;;;;;;14.47;6.47;;;;;;;;;;10360547;28;21135;-74
2023/12/01 05:37:27;;;;;;;16.63;7.77;;;;;;;;;;10338877;28;20238;-75
2023/12/01 05:42:28;;;;;;;11.60;6.40;;;;;;;;;;10352373;28;21643;-74
2023/12/01 05:47:29;;;;;;;13.57;7.53;;;;;;;;;;10347799;28;20226;-74
2023/12/01 05:52:30;;;;;;;13.07;7.25;;;;;;;;;;10337993;28;20321;-75
2023/12/01 05:57:31;;;;;;;19.77;7.17;;;;;;;;;;10341574;28;20226;-74
2023/12/01 06:02:32;;;;;;;13.67;7.20;;;;;;;;;;10341631;28;20594;-75
2023/12/01 06:07:33;;;;;;;11.60;7.13;;;;;;;;;;10298362;28;20735;-76
2023/12/01 06:12:34;;;;;;;14.55;7.78;;;;;;;;;;10307645;28;20286;-75
2023/12/01 06:17:36;;;;;;;14.50;7.30;;;;;;;;;;10336278;28;20207;-75
2023/12/01 06:22:37;;;;;;;13.37;7.20;;;;;;;;;;10290953;28;20315;-76
2023/12/01 06:27:40;;;;;;;12.13;6.63;;;;;;;;;;10321108;28;20203;-75
2023/12/01 06:32:41;;;;;;;12.23;6.47;;;;;;;;;;10316819;28;20865;-73
2023/12/01 06:37:43;;;;;;;15.57;5.90;;;;;;;;;;10298814;28;20841;-74
2023/12/01 06:42:45;;;;;;;14.70;6.65;;;;;;;;;;10307636;28;20227;-75
2023/12/01 06:47:49;;;;;;;13.50;6.60;;;;;;;;;;10284306;28;20242;-73
2023/12/01 06:52:53;;;;;;;13.27;6.53;;;;;;;;;;10343673;28;20227;-74
2023/12/01 06:57:55;;;;;;;13.27;6.80;;;;;;;;;;10299669;28;20592;-73
2023/12/01 07:02:56;;;;;;;13.60;6.33;;;;;;;;;;10297884;28;20219;-75
2023/12/01 07:07:58;;;;;;;14.93;7.30;;;;;;;;;;10319787;28;20227;-75
2023/12/01 07:12:59;;;;;;;13.90;7.30;;;;;;;;;;10352003;28;20212;-76
2023/12/01 07:18:01;;;;;;;15.00;6.77;;;;;;;;;;10318718;28;20215;-75
2023/12/01 07:23:02;;;;;;;9.57;6.03;;;;;;;;;;10348341;28;20306;-75
2023/12/01 07:28:04;;;;;;;8.20;5.47;;;;;;;;;;10352167;28;20239;-76
2023/12/01 07:33:05;;;;;;;13.10;6.10;;;;;;;;;;10344389;28;20736;-77
2023/12/01 07:38:06;;;;;;;13.47;5.67;;;;;;;;;;10390845;28;20212;-76
2023/12/01 07:43:07;;;;;;;9.40;5.47;;;;;;;;;;10356260;28;20805;-77
2023/12/01 07:48:09;;;;;;;10.38;5.88;;;;;;;;;;10390897;28;20731;-78
2023/12/01 07:53:10;;;;;;;12.13;6.13;;;;;;;;;;10314858;28;20208;-74
2023/12/01 07:58:11;;;;;;;12.37;5.37;;;;;;;;;;10342012;28;20210;-77
2023/12/01 08:03:12;;;;;;;10.30;5.93;;;;;;;;;;10319580;28;20215;-76
2023/12/01 08:08:14;;;;;;;9.60;5.80;;;;;;;;;;10328687;28;20855;-76
2023/12/01 08:13:15;;;;;;;8.57;5.60;;;;;;;;;;10356573;28;20211;-76
2023/12/01 08:18:16;;;;;;;11.73;5.87;;;;;;;;;;10302665;28;20223;-76
2023/12/01 08:23:17;;;;;;;11.00;5.37;;;;;;;;;;10303350;28;20989;-79
2023/12/01 08:28:19;;;;;;;9.17;5.27;;;;;;;;;;10335808;28;20215;-75
2023/12/01 08:33:20;;;;;;;8.97;5.77;;;;;;;;;;10335556;28;20211;-76
2023/12/01 08:38:21;;;;;;;10.98;6.63;;;;;;;;;;10302875;28;20285;-75
2023/12/01 08:43:22;;;;;;;11.13;6.23;;;;;;;;;;10316586;28;20218;-77
2023/12/01 08:48:23;;;;;;;10.97;5.70;;;;;;;;;;10328934;28;20231;-75
2023/12/01 08:53:24;;;;;;;12.27;6.67;;;;;;;;;;10313078;28;20211;-76
2023/12/01 08:58:25;;;;;;;13.03;6.63;;;;;;;;;;10354399;28;20281;-74
2023/12/01 09:03:26;;;;;;;13.00;5.70;;;;;;;;;;10319114;28;20216;-76
2023/12/01 09:08:27;;;;;;;9.30;6.40;;;;;;;;;;10338515;28;20242;-75
2023/12/01 09:13:32;;;;;;;16.90;7.07;;;;;;;;;;10340873;28;20204;-74
2023/12/01 09:18:33;;;;;;;17.07;7.73;;;;;;;;;;10329869;28;20231;-75
2023/12/01 09:23:34;;;;;;;15.90;7.18;;;;;;;;;;10295019;28;20608;-76
2023/12/01 09:28:35;;;;;;;14.40;6.15;;;;;;;;;;10322995;28;20223;-75
2023/12/01 09:33:37;;;;;;;19.65;8.05;;;;;;;;;;10334336;28;20203;-77
2023/12/01 09:38:37;;;;;;;13.90;7.80;;;;;;;;;;10311386;28;20705;-74
2023/12/01 09:43:41;;;;;;;16.17;7.85;;;;;;;;;;10329150;28;20215;-75
2023/12/01 09:48:42;;;;;;;20.08;7.97;;;;;;;;;;10331077;28;20227;-75
2023/12/01 09:53:44;;;;;;;16.30;6.13;;;;;;;;;;10321217;28;20187;-76
2023/12/01 09:58:45;;;;;;;12.23;6.78;;;;;;;;;;10333071;28;20211;-74
2023/12/01 10:03:46;;;;;;;14.87;7.67;;;;;;;;;;10317012;28;20195;-73
2023/12/01 10:08:51;;;;;;;15.98;7.82;;;;;;;;;;10342611;28;20230;-78
2023/12/01 10:13:52;;;;;;;15.23;7.47;;;;;;;;;;10318397;28;21741;-78
2023/12/01 10:18:57;;;;;;;17.58;7.75;;;;;;;;;;10302401;28;20930;-75
2023/12/01 10:23:58;;;;;;;18.88;7.72;;;;;;;;;;10303557;28;20203;-74
2023/12/01 10:28:59;;;;;;;14.65;6.72;;;;;;;;;;10343442;28;20215;-75
2023/12/01 10:34:01;;;;;;;14.73;7.10;;;;;;;;;;10325723;28;20238;-76
2023/12/01 10:39:03;;;;;;;12.45;6.85;;;;;;;;;;10306809;28;21012;-75
2023/12/01 10:44:04;;;;;;;13.48;6.47;;;;;;;;;;10321151;28;20226;-73
2023/12/01 10:49:06;;;;;;;15.15;7.72;;;;;;;;;;10344580;28;20222;-74
2023/12/01 10:54:10;;;;;;;12.52;7.05;;;;;;;;;;10300109;28;20417;-77
2023/12/01 10:59:15;;;;;;;10.25;5.18;;;;;;;;;;10331658;28;20219;-75
2023/12/01 11:04:22;;;;;;;6.70;5.32;;;;;;;;;;10352170;28;20218;-76
2023/12/01 11:09:30;;;;;;;14.00;6.18;;;;;;;;;;10348736;28;20262;-76
2023/12/01 11:14:31;;;;;;;12.07;4.70;;;;;;;;;;10311368;28;21106;-75
2023/12/01 11:19:39;;;;;;;11.07;6.75;;;;;;;;;;10321055;28;20211;-76
2023/12/01 11:24:45;;;;;;;7.80;5.00;;;;;;;;;;10347951;28;20234;-75
2023/12/01 11:29:59;;;;;;;6.35;4.47;;;;;;;;;;10350478;28;20218;-76
2023/12/01 11:35:06;;;;;;;8.70;5.33;;;;;;;;;;10347247;28;20829;-76
2023/12/01 11:40:24;;;;;;;7.38;4.53;;;;;;;;;;10348551;28;20588;-75
2023/12/01 11:45:39;;;;;;;5.93;4.73;;;;;;;;;;10378051;28;20223;-74
2023/12/01 11:50:40;;;;;;;5.87;4.70;;;;;;;;;;10354694;28;20284;-75
2023/12/01 11:55:41;;;;;;;4.70;4.10;;;;;;;;;;10322699;28;20222;-75
2023/12/01 12:00:43;;;;;;;5.97;4.07;;;;;;;;;;10340570;28;20227;-75
2023/12/01 12:05:45;;;;;;;6.15;5.13;;;;;;;;;;10357859;28;20215;-76
2023/12/01 12:10:46;;;;;;;8.20;5.37;;;;;;;;;;10319484;28;20243;-76
2023/12/01 12:15:48;;;;;;;7.82;4.63;;;;;;;;;;10323111;28;20204;-75
2023/12/01 12:20:49;;;;;;;4.68;4.25;;;;;;;;;;10337038;28;20697;-75
2023/12/01 12:25:52;;;;;;;7.18;4.80;;;;;;;;;;10318467;28;20216;-75
2023/12/01 12:30:56;;;;;;;8.18;4.35;;;;;;;;;;10334586;28;20219;-76
2023/12/01 12:35:57;;;;;;;5.43;4.38;;;;;;;;;;10328221;28;20257;-75
2023/12/01 12:40:58;;;;;;;5.22;4.70;;;;;;;;;;10315981;28;20218;-76
2023/12/01 12:46:03;;;;;;;4.80;4.18;;;;;;;;;;10332422;28;20215;-78
2023/12/01 12:51:05;;;;;;;6.53;4.13;;;;;;;;;;10309853;28;20228;-75
2023/12/01 12:56:11;;;;;;;4.22;3.88;;;;;;;;;;10338485;28;20215;-74
2023/12/01 13:01:13;;;;;;;4.73;3.93;;;;;;;;;;10325749;28;20219;-75
2023/12/01 13:06:15;;;;;;;6.30;4.80;;;;;;;;;;10335308;28;20571;-74
2023/12/01 13:11:17;;;;;;;6.90;4.78;;;;;;;;;;10342264;28;20232;-75
2023/12/01 13:16:18;;;;;;;5.45;4.22;;;;;;;;;;10334334;28;20268;-75
2023/12/01 13:21:19;;;;;;;4.65;4.05;;;;;;;;;;10337312;28;20264;-76
2023/12/01 13:26:20;;;;;;;3.75;3.33;;;;;;;;;;10315010;28;20215;-74
2023/12/01 13:31:22;;;;;;;5.13;4.25;;;;;;;;;;10294885;28;20238;-76
2023/12/01 13:36:23;;;;;;;4.93;3.75;;;;;;;;;;10317741;28;20208;-77
2023/12/01 13:41:24;;;;;;;4.27;3.87;;;;;;;;;;10281783;28;20294;-75
2023/12/01 13:46:25;;;;;;;4.90;4.40;;;;;;;;;;10286728;28;20207;-76
2023/12/01 13:51:26;;;;;;;4.03;3.60;;;;;;;;;;10302100;28;20228;-77
2023/12/01 13:56:27;;;;;;;4.82;3.47;;;;;;;;;;10294771;28;20219;-75
2023/12/01 14:01:28;;;;;;;5.43;4.17;;;;;;;;;;10296054;28;21635;-76
2023/12/01 14:06:29;;;;;;;4.77;4.30;;;;;;;;;;10331294;28;20370;-75
2023/12/01 14:11:30;;;;;;;5.30;3.30;;;;;;;;;;10327596;28;20406;-75
2023/12/01 14:16:32;;;;;;;6.63;3.73;;;;;;;;;;10290449;28;20219;-79
2023/12/01 14:21:33;;;;;;;6.03;4.03;;;;;;;;;;10333678;28;21367;-78
2023/12/01 14:26:34;;;;;;;4.18;3.70;;;;;;;;;;10325900;28;20230;-75
2023/12/01 14:31:36;;;;;;;3.72;3.35;;;;;;;;;;10333278;28;20215;-78
2023/12/01 14:36:37;;;;;;;3.93;3.47;;;;;;;;;;10357138;28;20828;-75
2023/12/01 14:41:38;;;;;;;3.92;3.58;;;;;;;;;;10310743;28;20333;-76
2023/12/01 14:46:40;;;;;;;4.90;3.40;;;;;;;;;;10361550;28;20219;-78
2023/12/01 14:51:41;;;;;;;5.23;4.23;;;;;;;;;;10386713;28;20227;-76
2023/12/01 14:56:42;;;;;;;5.30;3.17;;;;;;;;;;10326200;28;20257;-78
2023/12/01 15:01:43;;;;;;;6.38;3.38;;;;;;;;;;10343685;28;20219;-76
2023/12/01 15:06:44;;;;;;;4.43;3.27;;;;;;;;;;10345299;28;20257;-75
2023/12/01 15:11:47;;;;;;;5.43;3.40;;;;;;;;;;10349554;28;20227;-76
2023/12/01 15:16:48;;;;;;;6.87;3.77;;;;;;;;;;10319151;28;20681;-75
2023/12/01 15:21:49;;;;;;;5.17;3.80;;;;;;;;;;10343362;28;20215;-76
2023/12/01 15:26:50;;;;;;;3.87;3.57;;;;;;;;;;10350544;28;20203;-78
2023/12/01 15:31:51;;;;;;;5.47;2.53;;;;;;;;;;10346984;28;20226;-78
2023/12/01 15:36:52;;;;;;;2.97;2.67;;;;;;;;;;10342424;28;20219;-74
2023/12/01 15:41:53;;;;;;;3.97;3.15;;;;;;;;;;10358487;28;20216;-77
2023/12/01 15:46:54;;;;;;;3.25;2.72;;;;;;;;;;10350803;28;20223;-78
2023/12/01 15:51:56;;;;;;;3.20;3.00;;;;;;;;;;10344099;28;20211;-78
2023/12/01 15:56:57;;;;;;;7.20;4.85;;;;;;;;;;10329980;28;20210;-76
2023/12/01 16:01:58;;;;;;;4.15;3.90;;;;;;;;;;10339951;28;20211;-76
2023/12/01 16:06:59;;;;;;;3.30;3.00;;;;;;;;;;10303762;28;20234;-78
2023/12/01 16:12:00;;;;;;;5.20;4.15;;;;;;;;;;10296420;28;20231;-76
2023/12/01 16:17:02;;;;;;;5.80;3.50;;;;;;;;;;10343234;28;20716;-74
2023/12/01 16:22:03;;;;;;;4.90;3.77;;;;;;;;;;10287081;28;20230;-78
2023/12/01 16:27:04;;;;;;;5.23;3.17;;;;;;;;;;10313780;28;20696;-78
2023/12/01 16:32:05;;;;;;;4.97;3.73;;;;;;;;;;10346091;28;20262;-77
2023/12/01 16:37:06;;;;;;;3.23;2.93;;;;;;;;;;10305121;28;20313;-76
2023/12/01 16:42:07;;;;;;;4.13;3.03;;;;;;;;;;10335709;28;20929;-75
2023/12/01 16:47:08;;;;;;;6.33;3.63;;;;;;;;;;10352933;28;20211;-74
2023/12/01 16:52:09;;;;;;;2.90;2.67;;;;;;;;;;10316334;28;20219;-74
2023/12/01 16:57:10;;;;;;;4.20;3.23;;;;;;;;;;10316001;28;21536;-76
2023/12/01 17:02:12;;;;;;;4.93;3.80;;;;;;;;;;10311846;28;20273;-73
2023/12/01 17:07:20;;;;;;;4.23;3.90;;;;;;;;;;10453207;27;20574;-74
2023/12/01 17:12:21;;;;;;;2.93;2.57;;;;;;;;;;10385871;28;20230;-73
2023/12/01 17:17:22;;;;;;;6.70;3.07;;;;;;;;;;10403453;28;20214;-75
2023/12/01 17:22:23;;;;;;;4.73;3.73;;;;;;;;;;10413445;28;20202;-74
2023/12/01 17:27:24;;;;;;;3.10;2.80;;;;;;;;;;10392348;28;20629;-73
2023/12/01 17:32:25;;;;;;;2.88;2.33;;;;;;;;;;10339850;28;20230;-77
2023/12/01 17:37:27;;;;;;;3.83;2.77;;;;;;;;;;10430855;28;20214;-74
2023/12/01 17:42:28;;;;;;;2.60;2.40;;;;;;;;;;10426686;28;20222;-77
2023/12/01 17:47:29;;;;;;;3.57;2.13;;;;;;;;;;10464127;28;20296;-76
2023/12/01 17:52:30;;;;;;;2.70;2.23;;;;;;;;;;10407561;28;20303;-76
2023/12/01 17:57:31;;;;;;;2.83;2.60;;;;;;;;;;10403689;28;20201;-74
2023/12/01 18:02:32;;;;;;;3.67;2.63;;;;;;;;;;10388803;28;20207;-74
2023/12/01 18:07:33;;;;;;;2.83;2.63;;;;;;;;;;10390951;28;20284;-74
2023/12/01 18:12:34;;;;;;;6.43;3.50;;;;;;;;;;10413178;28;20308;-75
2023/12/01 18:17:35;;;;;;;3.23;3.03;;;;;;;;;;10381699;28;20219;-76
2023/12/01 18:22:36;;;;;;;5.27;3.20;;;;;;;;;;10406165;28;20222;-75
2023/12/01 18:27:37;;;;;;;3.97;3.20;;;;;;;;;;10379546;28;20852;-75
2023/12/01 18:32:38;;;;;;;2.50;2.30;;;;;;;;;;10385383;28;20281;-73
2023/12/01 18:37:39;;;;;;;4.47;3.37;;;;;;;;;;10393056;28;20785;-73
2023/12/01 18:42:40;;;;;;;4.83;3.13;;;;;;;;;;10373343;28;20624;-76
2023/12/01 18:47:41;;;;;;;3.03;2.80;;;;;;;;;;10372694;28;20264;-75
2023/12/01 18:52:42;;;;;;;2.67;2.47;;;;;;;;;;10381910;28;20203;-76
2023/12/01 18:57:43;;;;;;;2.97;2.77;;;;;;;;;;10318171;28;20214;-76
2023/12/01 19:02:44;;;;;;;8.00;2.90;;;;;;;;;;10362218;28;20463;-76
2023/12/01 19:07:45;;;;;;;3.67;2.90;;;;;;;;;;10398561;28;20215;-75
2023/12/01 19:12:46;;;;;;;6.87;4.27;;;;;;;;;;10407515;28;20213;-76
2023/12/01 19:17:47;;;;;;;5.22;2.92;;;;;;;;;;10377476;28;20222;-77
2023/12/01 19:22:48;;;;;;;3.37;2.93;;;;;;;;;;10382767;28;20988;-73
2023/12/01 19:27:49;;;;;;;4.37;3.00;;;;;;;;;;10358876;28;20298;-73
2023/12/01 19:32:50;;;;;;;5.30;3.17;;;;;;;;;;10382280;28;20769;-77
2023/12/01 19:37:51;;;;;;;6.13;3.75;;;;;;;;;;10375525;28;20223;-75
2023/12/01 19:42:53;;;;;;;3.10;2.80;;;;;;;;;;10359201;28;20215;-74
2023/12/01 19:47:54;;;;;;;4.20;2.90;;;;;;;;;;10349763;28;20230;-74
2023/12/01 19:52:55;;;;;;;8.55;3.80;;;;;;;;;;10393570;28;20360;-75
2023/12/01 19:57:56;;;;;;;6.57;4.57;;;;;;;;;;10398858;28;20218;-75
2023/12/01 20:02:57;;;;;;;6.90;4.00;;;;;;;;;;10429063;28;20238;-75
2023/12/01 20:07:58;;;;;;;7.93;3.70;;;;;;;;;;10361708;28;20221;-75
2023/12/01 20:12:59;;;;;;;4.03;3.50;;;;;;;;;;10394711;28;20238;-75
2023/12/01 20:18:00;;;;;;;4.60;3.23;;;;;;;;;;10390557;28;20206;-74
2023/12/01 20:23:02;;;;;;;4.97;3.28;;;;;;;;;;10398017;28;20219;-75
2023/12/01 20:28:03;;;;;;;3.15;2.63;;;;;;;;;;10357178;28;20748;-77
2023/12/01 20:33:04;;;;;;;6.63;2.90;;;;;;;;;;10362786;28;20209;-74
2023/12/01 20:38:05;;;;;;;6.33;3.70;;;;;;;;;;10390426;28;20712;-74
2023/12/01 20:43:06;;;;;;;6.93;4.03;;;;;;;;;;10367041;28;20219;-74
2023/12/01 20:48:07;;;;;;;10.20;4.70;;;;;;;;;;10376116;28;20219;-74
2023/12/01 20:53:09;;;;;;;6.10;3.60;;;;;;;;;;10396469;28;20272;-74
2023/12/01 20:58:10;;;;;;;5.97;3.35;;;;;;;;;;10376545;28;20289;-74
2023/12/01 21:03:12;;;;;;;6.43;3.65;;;;;;;;;;10411719;28;20235;-74
2023/12/01 21:08:13;;;;;;;6.93;3.53;;;;;;;;;;10374128;28;20927;-76
2023/12/01 21:13:14;;;;;;;4.10;2.93;;;;;;;;;;10403583;28;20211;-75
2023/12/01 21:18:15;;;;;;;9.57;4.68;;;;;;;;;;10408304;28;20218;-75
2023/12/01 21:23:16;;;;;;;6.53;3.65;;;;;;;;;;10383692;28;20219;-75
2023/12/01 21:28:17;;;;;;;4.68;3.47;;;;;;;;;;10416509;28;20215;-75
2023/12/01 21:33:18;;;;;;;4.90;3.47;;;;;;;;;;10396383;28;20586;-75
2023/12/01 21:38:19;;;;;;;10.07;4.35;;;;;;;;;;10414946;28;20214;-75
2023/12/01 21:43:20;;;;;;;6.87;3.30;;;;;;;;;;10414485;28;20229;-76
2023/12/01 21:48:20;;;;;;;5.18;3.33;;;;;;;;;;10376329;28;20207;-75
2023/12/01 21:53:21;;;;;;;6.43;4.18;;;;;;;;;;10369373;28;20357;-74
2023/12/01 21:58:23;;;;;;;7.00;4.03;;;;;;;;;;10379949;28;20243;-75
2023/12/01 22:03:24;;;;;;;8.77;3.87;;;;;;;;;;10397864;28;20226;-75
2023/12/01 22:08:25;;;;;;;11.07;4.68;;;;;;;;;;10403554;28;20322;-77
2023/12/01 22:13:26;;;;;;;7.47;4.53;;;;;;;;;;10377249;28;20592;-77
2023/12/01 22:18:27;;;;;;;9.35;4.97;;;;;;;;;;10397755;28;20236;-76
2023/12/01 22:23:28;;;;;;;11.10;4.17;;;;;;;;;;10392668;28;20230;-78
2023/12/01 22:28:29;;;;;;;7.90;3.90;;;;;;;;;;10403985;28;20219;-77
2023/12/01 22:33:30;;;;;;;6.20;4.00;;;;;;;;;;10423943;28;20626;-79
2023/12/01 22:38:31;;;;;;;10.83;4.63;;;;;;;;;;10434999;28;20712;-77
2023/12/01 22:43:32;;;;;;;8.15;4.28;;;;;;;;;;10423472;28;20203;-79
2023/12/01 22:48:33;;;;;;;10.52;3.47;;;;;;;;;;10431551;28;20215;-77
2023/12/01 22:53:34;;;;;;;11.00;4.45;;;;;;;;;;10381318;28;20227;-76
2023/12/01 22:58:35;;;;;;;6.88;4.35;;;;;;;;;;10395780;28;20697;-77
2023/12/01 23:03:37;;;;;;;7.83;4.57;;;;;;;;;;10404732;28;20444;-76
2023/12/01 23:08:38;;;;;;;6.67;4.00;;;;;;;;;;10408214;28;20215;-75
2023/12/01 23:13:39;;;;;;;10.80;4.72;;;;;;;;;;10398091;28;20296;-77
2023/12/01 23:18:40;;;;;;;12.53;4.73;;;;;;;;;;10410070;28;20214;-77
2023/12/01 23:23:42;;;;;;;9.57;4.80;;;;;;;;;;10416269;28;20215;-77
2023/12/01 23:28:43;;;;;;;9.85;5.15;;;;;;;;;;10401221;28;20814;-77
2023/12/01 23:33:44;;;;;;;9.70;5.37;;;;;;;;;;10390459;28;20226;-75
2023/12/01 23:38:45;;;;;;;12.82;5.60;;;;;;;;;;10361803;28;20215;-76
2023/12/01 23:43:46;;;;;;;9.17;4.23;;;;;;;;;;10375622;28;21218;-77
2023/12/01 23:48:47;;;;;;;13.10;6.33;;;;;;;;;;10414560;28;20713;-77
2023/12/01 23:53:48;;;;;;;7.60;3.90;;;;;;;;;;10371563;28;20203;-75
2023/12/01 23:58:49;;;;;;;9.52;4.60;;;;;;;;;;10394343;28;20694;-76
